createdAt,value
2023-02-05T00:02:09.963Z,59.20
2023-02-05T00:04:37.694Z,59.20
2023-02-05T00:07:05.422Z,59.30
2023-02-05T00:09:33.053Z,59.30
2023-02-05T00:12:00.190Z,59.40
2023-02-05T00:16:54.417Z,59.40
2023-02-05T00:31:39.986Z,59.30
2023-02-05T00:34:07.889Z,59.20
2023-02-05T00:43:56.575Z,59.10
2023-02-05T01:01:07.282Z,58.90
2023-02-05T01:03:34.110Z,58.90
2023-02-05T01:08:30.260Z,58.80
2023-02-05T01:13:24.396Z,58.70
2023-02-05T01:18:18.621Z,58.70
2023-02-05T01:30:36.263Z,58.90
2023-02-05T01:33:04.188Z,58.90
2023-02-05T01:45:23.658Z,59.30
2023-02-05T01:47:52.075Z,59.20
2023-02-05T01:50:24.991Z,59.30
2023-02-05T01:52:52.905Z,59.40
2023-02-05T01:55:20.726Z,59.50
2023-02-05T01:57:50.224Z,59.70
2023-02-05T02:05:16.000Z,60.00
2023-02-05T02:10:15.155Z,60.10
2023-02-05T02:12:45.314Z,60.10
2023-02-05T02:15:19.227Z,60.20
2023-02-05T02:17:49.978Z,60.10
2023-02-05T02:20:26.147Z,60.10
2023-02-05T02:22:55.968Z,60.10
2023-02-05T02:25:53.461Z,60.10
2023-02-05T02:28:50.547Z,60.10
2023-02-05T02:31:44.351Z,60.10
2023-02-05T02:36:50.222Z,60.10
2023-02-05T02:39:27.162Z,60.10
2023-02-05T02:42:05.126Z,60.20
2023-02-05T02:44:47.352Z,60.30
2023-02-05T02:47:21.319Z,60.50
2023-02-05T02:49:56.589Z,60.50
2023-02-05T02:52:25.957Z,60.40
2023-02-05T02:54:56.305Z,60.30
2023-02-05T02:57:27.268Z,60.40
2023-02-05T02:59:58.452Z,60.40
2023-02-05T03:02:30.309Z,60.30
2023-02-05T03:05:01.693Z,60.30
2023-02-05T03:07:38.026Z,60.30
2023-02-05T03:10:20.614Z,61.10
2023-02-05T03:12:48.404Z,60.20
2023-02-05T03:15:15.860Z,60.20
2023-02-05T03:20:18.958Z,60.40
2023-02-05T03:22:45.842Z,60.50
2023-02-05T03:27:42.092Z,60.50
2023-02-05T03:30:09.784Z,60.50
2023-02-05T03:33:02.924Z,60.50
2023-02-05T03:35:46.059Z,60.50
2023-02-05T03:38:30.847Z,60.50
2023-02-05T03:41:56.616Z,60.50
2023-02-05T03:44:48.669Z,60.40
2023-02-05T03:47:49.144Z,60.60
2023-02-05T03:52:57.419Z,60.70
2023-02-05T03:55:31.170Z,60.80
2023-02-05T03:58:09.007Z,60.90
2023-02-05T04:03:04.579Z,60.80
2023-02-05T04:05:33.518Z,60.80
2023-02-05T04:08:02.556Z,60.80
2023-02-05T04:10:34.890Z,60.70
2023-02-05T04:13:03.392Z,60.90
2023-02-05T04:20:29.532Z,60.90
2023-02-05T04:25:25.040Z,61.00
2023-02-05T04:27:54.240Z,61.20
2023-02-05T04:35:17.509Z,61.50
2023-02-05T04:45:08.926Z,61.50
2023-02-05T04:47:35.908Z,61.40
2023-02-05T04:50:03.182Z,61.50
2023-02-05T05:04:46.362Z,62.00
2023-02-05T05:09:40.503Z,62.00
2023-02-05T05:14:34.815Z,62.10
2023-02-05T05:19:28.825Z,62.00
2023-02-05T05:21:55.584Z,62.10
2023-02-05T05:26:49.564Z,62.00
2023-02-05T05:31:43.758Z,61.80
2023-02-05T05:36:40.021Z,61.70
2023-02-05T05:39:25.490Z,61.70
2023-02-05T05:44:38.281Z,61.70
2023-02-05T05:54:26.821Z,61.90
2023-02-05T06:04:15.202Z,62.10
2023-02-05T06:11:36.736Z,62.20
2023-02-05T06:16:30.942Z,62.30
2023-02-05T06:21:25.280Z,62.50
2023-02-05T06:31:13.807Z,62.90
2023-02-05T06:36:07.996Z,63.10
2023-02-05T06:50:51.034Z,63.30
2023-02-05T06:58:12.780Z,63.70
2023-02-05T07:05:34.868Z,63.70
2023-02-05T07:08:04.138Z,63.80
2023-02-05T07:12:58.320Z,64.00
2023-02-05T07:27:41.882Z,64.40
2023-02-05T07:35:03.904Z,64.60
2023-02-05T07:39:57.935Z,64.70
2023-02-05T07:42:24.774Z,64.80
2023-02-05T07:47:24.114Z,64.80
2023-02-05T07:52:18.317Z,65.00
2023-02-05T07:54:45.145Z,65.10
2023-02-05T07:57:11.920Z,65.20
2023-02-05T07:59:38.721Z,65.10
2023-02-05T08:09:27.577Z,65.00
2023-02-05T08:11:54.472Z,64.80
2023-02-05T08:19:17.776Z,65.00
2023-02-05T08:29:08.417Z,65.20
2023-02-05T08:31:35.801Z,65.30
2023-02-05T08:36:30.493Z,65.50
2023-02-05T08:46:21.981Z,65.50
2023-02-05T08:48:49.416Z,65.80
2023-02-05T08:51:17.523Z,66.00
2023-02-05T08:56:14.037Z,66.30
2023-02-05T09:01:14.191Z,66.60
2023-02-05T09:03:41.394Z,66.70
2023-02-05T09:06:10.820Z,66.70
2023-02-05T09:11:05.498Z,66.60
2023-02-05T09:23:22.116Z,66.80
2023-02-05T09:30:45.941Z,66.80
2023-02-05T09:35:40.625Z,66.90
2023-02-05T09:38:07.571Z,66.90
2023-02-05T09:41:01.690Z,67.10
2023-02-05T09:43:40.726Z,67.10
2023-02-05T09:46:44.958Z,67.00
2023-02-05T09:49:19.546Z,67.00
2023-02-05T09:51:50.633Z,67.00
2023-02-05T09:54:31.072Z,67.00
2023-02-05T09:57:08.119Z,67.10
2023-02-05T10:02:18.104Z,67.30
2023-02-05T10:07:30.229Z,67.50
2023-02-05T10:10:03.041Z,67.40
2023-02-05T10:15:25.919Z,67.60
2023-02-05T10:20:43.327Z,67.40
2023-02-05T10:23:33.187Z,67.50
2023-02-05T10:26:13.423Z,67.40
2023-02-05T10:29:03.804Z,67.40
2023-02-05T10:31:43.836Z,67.30
2023-02-05T10:34:33.787Z,67.50
2023-02-05T10:37:04.478Z,67.70
2023-02-05T10:42:04.247Z,68.10
2023-02-05T10:44:56.943Z,68.20
2023-02-05T10:47:41.073Z,68.20
2023-02-05T10:50:33.992Z,68.00
2023-02-05T10:55:28.730Z,68.10
2023-02-05T11:00:24.354Z,68.00
2023-02-05T11:02:54.933Z,68.10
2023-02-05T11:05:30.406Z,68.20
2023-02-05T11:10:28.359Z,68.10
2023-02-05T11:12:59.381Z,67.90
2023-02-05T11:15:31.849Z,68.10
2023-02-05T11:18:01.940Z,68.30
2023-02-05T11:20:38.326Z,68.30
2023-02-05T11:23:07.103Z,68.40
2023-02-05T11:28:05.667Z,68.50
2023-02-05T11:30:52.048Z,68.60
2023-02-05T11:33:22.382Z,69.00
2023-02-05T11:36:04.919Z,69.20
2023-02-05T11:38:43.559Z,69.20
2023-02-05T11:41:13.834Z,69.10
2023-02-05T11:43:50.618Z,69.10
2023-02-05T11:46:24.427Z,69.10
2023-02-05T11:51:40.519Z,69.10
2023-02-05T11:54:22.531Z,68.80
2023-02-05T11:57:08.316Z,68.90
2023-02-05T11:59:36.257Z,69.00
2023-02-05T12:02:30.799Z,69.10
2023-02-05T12:05:24.176Z,69.00
2023-02-05T12:08:00.152Z,69.10
2023-02-05T12:10:46.116Z,69.20
2023-02-05T12:13:37.776Z,69.20
2023-02-05T12:19:04.791Z,69.10
2023-02-05T12:24:30.742Z,69.40
2023-02-05T12:27:13.394Z,69.30
2023-02-05T12:29:55.544Z,69.40
2023-02-05T12:32:27.985Z,69.40
2023-02-05T12:35:06.416Z,69.30
2023-02-05T12:37:48.299Z,69.30
2023-02-05T12:43:08.415Z,69.30
2023-02-05T12:46:10.286Z,69.30
2023-02-05T12:49:14.630Z,69.00
2023-02-05T12:52:01.294Z,69.00
2023-02-05T12:54:46.246Z,68.80
2023-02-05T12:57:23.502Z,68.60
2023-02-05T12:59:55.822Z,68.50
2023-02-05T13:02:43.802Z,68.50
2023-02-05T13:05:26.844Z,68.70
2023-02-05T13:08:03.714Z,68.70
2023-02-05T13:10:52.251Z,68.70
2023-02-05T13:13:47.841Z,68.70
2023-02-05T13:16:17.859Z,68.70
2023-02-05T13:19:14.488Z,68.80
2023-02-05T13:22:00.721Z,68.90
2023-02-05T13:25:24.804Z,69.10
2023-02-05T13:28:17.410Z,69.00
2023-02-05T13:30:54.720Z,69.10
2023-02-05T13:33:21.605Z,69.10
2023-02-05T13:36:03.708Z,69.20
2023-02-05T13:41:17.270Z,69.30
2023-02-05T13:44:14.665Z,69.20
2023-02-05T13:47:00.108Z,69.30
2023-02-05T13:52:12.997Z,69.10
2023-02-05T13:55:15.608Z,69.10
2023-02-05T13:58:04.773Z,68.90
2023-02-05T14:00:32.569Z,68.80
2023-02-05T14:03:05.585Z,68.50
2023-02-05T14:05:36.094Z,68.50
2023-02-05T14:08:04.132Z,68.40
2023-02-05T14:10:38.004Z,68.40
2023-02-05T14:13:24.590Z,68.20
2023-02-05T14:15:54.046Z,69.00
2023-02-05T14:18:41.114Z,68.20
2023-02-05T14:21:29.652Z,68.10
2023-02-05T14:24:23.853Z,67.90
2023-02-05T14:27:00.610Z,67.70
2023-02-05T14:29:48.254Z,67.60
2023-02-05T14:32:40.680Z,67.50
2023-02-05T14:35:28.280Z,67.40
2023-02-05T14:38:02.574Z,67.40
2023-02-05T14:40:36.434Z,67.40
2023-02-05T14:43:29.066Z,67.30
2023-02-05T14:48:30.804Z,67.30
2023-02-05T14:51:16.962Z,67.30
2023-02-05T14:53:55.143Z,67.30
2023-02-05T14:56:34.327Z,67.40
2023-02-05T14:59:19.820Z,67.30
2023-02-05T15:01:50.389Z,67.30
2023-02-05T15:04:26.958Z,67.30
2023-02-05T15:06:54.232Z,68.00
2023-02-05T15:09:31.582Z,67.20
2023-02-05T15:12:07.324Z,67.30
2023-02-05T15:14:37.561Z,67.30
2023-02-05T15:17:07.511Z,67.30
2023-02-05T15:19:50.083Z,67.40
2023-02-05T15:22:38.108Z,67.40
2023-02-05T15:25:30.508Z,67.40
2023-02-05T15:28:04.199Z,67.40
2023-02-05T15:30:53.602Z,67.40
2023-02-05T15:33:33.002Z,67.40
2023-02-05T15:36:04.268Z,67.40
2023-02-05T15:38:39.761Z,67.40
2023-02-05T15:41:07.984Z,67.50
2023-02-05T15:46:05.387Z,67.60
2023-02-05T15:48:35.147Z,67.70
2023-02-05T15:51:22.064Z,67.70
2023-02-05T15:53:50.925Z,67.70
2023-02-05T15:56:20.758Z,67.70
2023-02-05T15:59:11.612Z,67.70
2023-02-05T16:04:19.832Z,67.70
2023-02-05T16:06:46.916Z,67.70
2023-02-05T16:09:24.956Z,67.80
2023-02-05T16:11:52.115Z,67.80
2023-02-05T16:14:24.961Z,67.90
2023-02-05T16:17:03.804Z,67.90
2023-02-05T16:19:48.605Z,67.90
2023-02-05T16:22:42.811Z,67.90
2023-02-05T16:25:39.836Z,67.70
2023-02-05T16:28:10.935Z,68.50
2023-02-05T16:30:42.844Z,67.60
2023-02-05T16:33:25.306Z,67.60
2023-02-05T16:35:53.062Z,67.60
2023-02-05T16:38:23.284Z,67.70
2023-02-05T16:40:57.230Z,67.70
2023-02-05T16:43:40.636Z,67.50
2023-02-05T16:46:07.538Z,67.70
2023-02-05T16:48:56.714Z,67.60
2023-02-05T16:51:28.066Z,67.60
2023-02-05T16:53:54.848Z,67.60
2023-02-05T16:56:31.942Z,67.50
2023-02-05T16:59:01.312Z,67.40
2023-02-05T17:01:37.962Z,67.50
2023-02-05T17:06:37.460Z,67.60
2023-02-05T17:09:05.599Z,67.70
2023-02-05T17:14:31.124Z,67.90
2023-02-05T17:17:17.940Z,67.70
2023-02-05T17:20:02.760Z,67.90
2023-02-05T17:27:29.926Z,67.80
2023-02-05T17:29:58.404Z,67.80
2023-02-05T17:32:26.993Z,67.90
2023-02-05T17:34:54.021Z,67.80
2023-02-05T17:39:49.770Z,67.90
2023-02-05T17:42:26.492Z,68.00
2023-02-05T17:44:53.814Z,67.90
2023-02-05T17:52:15.803Z,67.90
2023-02-05T17:54:43.547Z,67.90
2023-02-05T17:57:22.316Z,67.90
2023-02-05T17:59:50.157Z,67.80
2023-02-05T18:02:17.605Z,67.80
2023-02-05T18:04:45.292Z,67.60
2023-02-05T18:07:30.825Z,67.50
2023-02-05T18:09:59.730Z,67.50
2023-02-05T18:14:54.402Z,67.50
2023-02-05T18:17:21.242Z,67.60
2023-02-05T18:27:12.010Z,67.80
2023-02-05T18:29:39.991Z,67.90
2023-02-05T18:32:07.586Z,67.80
2023-02-05T18:39:29.568Z,67.80
2023-02-05T18:41:57.557Z,67.80
2023-02-05T18:44:25.745Z,67.80
2023-02-05T18:46:53.120Z,67.80
2023-02-05T18:51:47.194Z,67.80
2023-02-05T18:59:12.939Z,67.90
2023-02-05T19:01:40.695Z,68.00
2023-02-05T19:04:10.428Z,68.00
2023-02-05T19:06:37.413Z,68.00
2023-02-05T19:11:31.795Z,67.90
2023-02-05T19:14:02.651Z,67.80
2023-02-05T19:16:31.505Z,67.70
2023-02-05T19:21:29.056Z,67.60
2023-02-05T19:23:57.513Z,67.70
2023-02-05T19:26:26.695Z,67.60
2023-02-05T19:28:56.391Z,67.50
2023-02-05T19:31:25.433Z,67.50
2023-02-05T19:33:52.467Z,67.50
2023-02-05T19:41:20.026Z,67.50
2023-02-05T19:43:52.445Z,67.50
2023-02-05T19:46:23.249Z,67.50
2023-02-05T19:51:17.444Z,67.40
2023-02-05T19:53:46.252Z,67.40
2023-02-05T19:56:19.659Z,67.30
2023-02-05T19:58:48.811Z,67.40
2023-02-05T20:01:17.766Z,67.40
2023-02-05T20:03:45.570Z,67.30
2023-02-05T20:06:15.140Z,67.30
2023-02-05T20:08:43.012Z,67.30
2023-02-05T20:13:38.477Z,66.70
2023-02-05T20:16:14.470Z,67.20
2023-02-05T20:18:41.333Z,67.90
2023-02-05T20:21:10.569Z,67.10
2023-02-05T20:23:37.679Z,67.10
2023-02-05T20:26:07.400Z,67.20
2023-02-05T20:28:56.722Z,67.10
2023-02-05T20:31:33.319Z,67.10
2023-02-05T20:34:22.251Z,67.10
2023-02-05T20:36:54.494Z,67.20
2023-02-05T20:39:23.640Z,67.20
2023-02-05T20:41:52.023Z,67.30
2023-02-05T20:44:19.803Z,67.30
2023-02-05T20:46:46.956Z,67.30
2023-02-05T20:49:14.704Z,67.30
2023-02-05T20:59:06.440Z,67.50
2023-02-05T21:01:35.006Z,67.50
2023-02-05T21:04:04.173Z,67.60
2023-02-05T21:06:33.904Z,67.60
2023-02-05T21:11:29.647Z,67.50
2023-02-05T21:16:26.396Z,67.30
2023-02-05T21:18:53.751Z,67.10
2023-02-05T21:21:24.088Z,67.10
2023-02-05T21:24:02.070Z,67.10
2023-02-05T21:26:31.887Z,67.10
2023-02-05T21:29:01.197Z,67.10
2023-02-05T21:31:36.330Z,67.00
2023-02-05T21:34:04.931Z,67.00
2023-02-05T21:36:32.219Z,66.90
2023-02-05T21:41:27.170Z,66.90
2023-02-05T21:43:56.676Z,66.80
2023-02-05T21:46:25.679Z,66.90
2023-02-05T21:48:54.557Z,66.80
2023-02-05T21:51:26.616Z,66.80
2023-02-05T21:53:59.180Z,66.80
2023-02-05T21:56:30.709Z,66.80
2023-02-05T22:01:27.482Z,66.60
2023-02-05T22:03:57.027Z,66.60
2023-02-05T22:06:25.660Z,66.60
2023-02-05T22:08:52.922Z,66.50
2023-02-05T22:11:21.435Z,66.60
2023-02-05T22:13:50.705Z,66.30
2023-02-05T22:16:22.446Z,66.30
2023-02-05T22:18:49.747Z,66.30
2023-02-05T22:21:19.431Z,66.30
2023-02-05T22:23:51.010Z,66.40
2023-02-05T22:26:20.020Z,66.30
2023-02-05T22:31:17.056Z,66.30
2023-02-05T22:33:45.634Z,66.30
2023-02-05T22:36:15.297Z,66.40
2023-02-05T22:38:43.044Z,66.60
2023-02-05T22:41:16.184Z,66.60
2023-02-05T22:46:12.928Z,66.60
2023-02-05T22:48:41.993Z,66.60
2023-02-05T22:51:12.893Z,66.60
2023-02-05T22:56:09.853Z,66.60
2023-02-05T22:58:40.543Z,66.50
2023-02-05T23:01:15.034Z,66.40
2023-02-05T23:06:12.007Z,66.50
2023-02-05T23:11:09.004Z,66.30
2023-02-05T23:16:12.334Z,66.10
2023-02-05T23:18:40.524Z,66.00
2023-02-05T23:21:12.776Z,65.90
2023-02-05T23:23:40.262Z,65.80
2023-02-05T23:26:12.937Z,65.80
2023-02-05T23:31:07.931Z,66.00
2023-02-05T23:36:04.509Z,66.20
2023-02-05T23:38:31.702Z,66.20
2023-02-05T23:40:58.740Z,66.20
2023-02-05T23:43:25.872Z,66.40
2023-02-05T23:45:54.072Z,66.50
2023-02-05T23:48:21.205Z,66.50
2023-02-05T23:50:52.700Z,66.50
2023-02-05T23:53:21.106Z,66.50
2023-02-05T23:55:49.218Z,66.60
2023-02-05T23:58:16.967Z,66.50
